createdAt,value
2023-04-10T00:00:33.241Z,34.33
2023-04-10T00:03:19.519Z,36.53
2023-04-10T00:05:46.759Z,35.03
2023-04-10T00:08:13.618Z,33.85
2023-04-10T00:10:41.058Z,33.42
2023-04-10T00:13:07.899Z,34.53
2023-04-10T00:15:35.348Z,31.37
2023-04-10T00:18:02.301Z,33.00
2023-04-10T00:20:29.615Z,31.60
2023-04-10T00:22:56.582Z,28.00
2023-04-10T00:25:23.793Z,30.98
2023-04-10T00:27:50.750Z,30.00
2023-04-10T00:30:17.949Z,29.85
2023-04-10T00:32:44.953Z,30.23
2023-04-10T00:35:12.311Z,33.25
2023-04-10T00:37:39.477Z,34.63
2023-04-10T00:40:07.505Z,28.95
2023-04-10T00:42:34.411Z,25.90
2023-04-10T00:45:01.673Z,26.27
2023-04-10T00:47:29.178Z,26.80
2023-04-10T00:49:56.329Z,27.30
2023-04-10T00:52:24.677Z,27.50
2023-04-10T00:54:52.746Z,27.98
2023-04-10T00:57:19.735Z,27.95
2023-04-10T00:59:48.411Z,29.10
2023-04-10T01:02:15.637Z,29.02
2023-04-10T01:04:43.331Z,29.58
2023-04-10T01:07:35.566Z,28.40
2023-04-10T01:10:18.282Z,29.40
2023-04-10T01:13:33.367Z,28.15
2023-04-10T01:16:13.287Z,29.45
2023-04-10T01:18:46.608Z,28.85
2023-04-10T01:21:16.368Z,28.73
2023-04-10T01:24:16.531Z,30.10
2023-04-10T01:26:46.377Z,29.45
2023-04-10T01:29:19.799Z,31.88
2023-04-10T01:31:55.449Z,29.67
2023-04-10T01:34:32.531Z,29.25
2023-04-10T01:37:05.579Z,30.00
2023-04-10T01:39:36.604Z,30.90
2023-04-10T01:42:06.584Z,30.38
2023-04-10T01:44:36.281Z,31.13
2023-04-10T01:47:05.023Z,30.27
2023-04-10T01:49:33.231Z,31.88
2023-04-10T01:52:01.760Z,29.77
2023-04-10T01:54:29.230Z,29.57
2023-04-10T01:56:57.200Z,30.00
2023-04-10T01:59:24.240Z,31.35
2023-04-10T02:01:57.691Z,31.95
2023-04-10T02:04:26.697Z,30.38
2023-04-10T02:07:45.733Z,32.33
2023-04-10T02:10:19.329Z,30.70
2023-04-10T02:12:53.746Z,31.02
2023-04-10T02:15:22.807Z,31.80
2023-04-10T02:17:52.581Z,31.42
2023-04-10T02:20:20.292Z,31.42
2023-04-10T02:22:47.901Z,31.08
2023-04-10T02:25:15.645Z,30.20
2023-04-10T02:27:42.841Z,29.98
2023-04-10T02:30:09.946Z,29.02
2023-04-10T02:32:37.802Z,29.75
2023-04-10T02:35:04.998Z,29.10
2023-04-10T02:37:33.324Z,29.83
2023-04-10T02:40:00.263Z,27.90
2023-04-10T02:42:27.667Z,30.58
2023-04-10T02:44:54.509Z,28.30
2023-04-10T02:47:22.011Z,29.08
2023-04-10T02:49:48.903Z,28.08
2023-04-10T02:52:17.429Z,28.42
2023-04-10T02:54:44.360Z,27.83
2023-04-10T02:57:11.872Z,29.00
2023-04-10T02:59:38.780Z,29.15
2023-04-10T03:02:05.933Z,27.83
2023-04-10T03:04:32.984Z,28.45
2023-04-10T03:07:00.515Z,28.23
2023-04-10T03:09:27.385Z,28.20
2023-04-10T03:11:54.971Z,28.73
2023-04-10T03:14:21.847Z,28.98
2023-04-10T03:16:49.072Z,29.80
2023-04-10T03:19:16.367Z,28.02
2023-04-10T03:21:43.528Z,27.77
2023-04-10T03:24:10.518Z,29.77
2023-04-10T03:26:37.776Z,28.10
2023-04-10T03:29:04.734Z,28.20
2023-04-10T03:31:31.960Z,28.02
2023-04-10T03:33:58.945Z,26.30
2023-04-10T03:36:26.980Z,28.17
2023-04-10T03:38:53.782Z,27.73
2023-04-10T03:41:23.566Z,27.45
2023-04-10T03:43:51.853Z,27.15
2023-04-10T03:46:19.097Z,26.75
2023-04-10T03:48:46.010Z,27.42
2023-04-10T03:51:13.180Z,25.88
2023-04-10T03:53:40.067Z,26.70
2023-04-10T03:56:08.290Z,26.02
2023-04-10T03:58:35.332Z,26.58
2023-04-10T04:01:02.515Z,28.08
2023-04-10T04:03:29.543Z,27.23
2023-04-10T04:05:56.724Z,28.10
2023-04-10T04:08:23.562Z,26.83
2023-04-10T04:10:50.870Z,28.02
2023-04-10T04:13:17.926Z,26.20
2023-04-10T04:15:45.114Z,27.50
2023-04-10T04:18:12.043Z,26.92
2023-04-10T04:20:39.197Z,26.70
2023-04-10T04:23:06.032Z,28.08
2023-04-10T04:25:33.222Z,27.50
2023-04-10T04:28:00.118Z,27.65
2023-04-10T04:30:27.341Z,26.85
2023-04-10T04:32:54.236Z,26.80
2023-04-10T04:35:22.019Z,27.20
2023-04-10T04:37:48.840Z,29.23
2023-04-10T04:40:16.148Z,29.40
2023-04-10T04:42:43.045Z,28.23
2023-04-10T04:45:10.557Z,28.20
2023-04-10T04:47:37.460Z,27.05
2023-04-10T04:50:05.020Z,47.17
2023-04-10T04:52:32.289Z,117.72
2023-04-10T04:54:59.502Z,64.18
2023-04-10T04:57:26.398Z,42.13
2023-04-10T04:59:53.690Z,40.03
2023-04-10T05:02:22.702Z,40.00
2023-04-10T05:04:50.420Z,32.85
2023-04-10T05:07:17.343Z,32.63
2023-04-10T05:09:44.507Z,31.50
2023-04-10T05:12:11.408Z,30.80
2023-04-10T05:14:38.566Z,27.75
2023-04-10T05:17:05.554Z,26.35
2023-04-10T05:19:32.800Z,25.33
2023-04-10T05:21:59.649Z,24.65
2023-04-10T05:24:26.794Z,27.30
2023-04-10T05:26:53.681Z,23.90
2023-04-10T05:29:20.876Z,25.80
2023-04-10T05:31:47.764Z,25.00
2023-04-10T05:34:14.907Z,26.65
2023-04-10T05:36:41.811Z,24.25
2023-04-10T05:39:09.069Z,23.55
2023-04-10T05:41:36.167Z,23.33
2023-04-10T05:44:03.387Z,24.35
2023-04-10T05:46:30.341Z,23.83
2023-04-10T05:48:58.423Z,23.23
2023-04-10T05:51:26.292Z,23.52
2023-04-10T05:53:53.432Z,23.73
2023-04-10T05:56:21.214Z,23.45
2023-04-10T05:58:48.421Z,23.73
2023-04-10T06:01:15.267Z,22.52
2023-04-10T06:03:42.832Z,22.55
2023-04-10T06:06:09.864Z,22.23
2023-04-10T06:08:37.046Z,25.52
2023-04-10T06:11:04.030Z,28.50
2023-04-10T06:13:32.506Z,28.67
2023-04-10T06:15:59.453Z,28.17
2023-04-10T06:18:26.819Z,26.15
2023-04-10T06:20:54.038Z,23.13
2023-04-10T06:23:21.307Z,24.13
2023-04-10T06:25:48.710Z,22.05
2023-04-10T06:28:16.089Z,22.30
2023-04-10T06:30:42.937Z,22.10
2023-04-10T06:33:10.996Z,23.15
2023-04-10T06:35:38.071Z,22.77
2023-04-10T06:38:05.410Z,22.67
2023-04-10T06:40:34.206Z,22.63
2023-04-10T06:43:01.881Z,21.80
2023-04-10T06:45:28.739Z,20.73
2023-04-10T06:47:56.338Z,21.13
2023-04-10T06:50:23.230Z,21.48
2023-04-10T06:52:50.503Z,22.25
2023-04-10T06:55:17.491Z,21.35
2023-04-10T06:57:45.687Z,22.55
2023-04-10T07:00:13.189Z,23.45
2023-04-10T07:02:40.708Z,23.38
2023-04-10T07:05:08.633Z,22.50
2023-04-10T07:07:35.996Z,24.65
2023-04-10T07:10:03.396Z,21.90
2023-04-10T07:12:34.010Z,18.88
2023-04-10T07:15:01.312Z,21.50
2023-04-10T07:17:28.622Z,18.63
2023-04-10T07:19:55.636Z,18.67
2023-04-10T07:22:22.810Z,20.70
2023-04-10T07:24:49.786Z,16.75
2023-04-10T07:27:17.197Z,19.33
2023-04-10T07:29:44.080Z,19.48
2023-04-10T07:32:11.687Z,19.83
2023-04-10T07:34:38.660Z,18.92
2023-04-10T07:37:05.967Z,19.23
2023-04-10T07:39:32.868Z,18.77
2023-04-10T07:42:00.539Z,19.58
2023-04-10T07:44:27.680Z,19.20
2023-04-10T07:46:56.012Z,19.80
2023-04-10T07:49:23.521Z,19.90
2023-04-10T07:51:50.669Z,19.98
2023-04-10T07:54:18.560Z,20.75
2023-04-10T07:56:45.697Z,27.75
2023-04-10T07:59:12.851Z,33.20
2023-04-10T08:01:40.957Z,22.10
2023-04-10T08:04:08.598Z,22.05
2023-04-10T08:06:35.848Z,17.63
2023-04-10T08:09:02.820Z,23.05
2023-04-10T08:11:32.108Z,20.25
2023-04-10T08:14:04.079Z,20.55
2023-04-10T08:16:33.673Z,25.63
2023-04-10T08:19:01.553Z,31.48
2023-04-10T08:21:32.165Z,18.80
2023-04-10T08:24:01.760Z,40.63
2023-04-10T08:26:29.644Z,24.92
2023-04-10T08:28:58.310Z,21.13
2023-04-10T08:31:27.426Z,22.48
2023-04-10T08:33:54.709Z,37.67
2023-04-10T08:36:22.282Z,11.93
2023-04-10T08:38:49.255Z,11.93
2023-04-10T08:41:18.822Z,11.43
2023-04-10T08:43:46.558Z,31.33
2023-04-10T08:46:15.103Z,9.00
2023-04-10T08:49:01.429Z,12.93
2023-04-10T08:51:41.802Z,30.15
2023-04-10T08:54:26.112Z,8.73
2023-04-10T08:56:55.017Z,14.60
2023-04-10T08:59:22.366Z,8.38
2023-04-10T09:01:49.719Z,8.90
2023-04-10T09:04:19.942Z,9.13
2023-04-10T09:06:47.172Z,7.82
2023-04-10T09:09:14.093Z,7.80
2023-04-10T09:11:53.107Z,7.93
2023-04-10T09:14:25.696Z,6.47
2023-04-10T09:16:53.972Z,7.28
2023-04-10T09:19:31.430Z,7.35
2023-04-10T09:21:58.646Z,6.68
2023-04-10T09:24:26.322Z,7.80
2023-04-10T09:26:53.763Z,6.60
2023-04-10T09:29:20.883Z,5.22
2023-04-10T09:31:48.134Z,6.05
2023-04-10T09:34:19.130Z,6.30
2023-04-10T09:37:01.375Z,7.28
2023-04-10T09:39:36.324Z,6.30
2023-04-10T09:42:03.645Z,6.82
2023-04-10T09:44:32.864Z,6.82
2023-04-10T09:47:18.921Z,6.30
2023-04-10T09:49:49.404Z,6.78
2023-04-10T09:52:22.443Z,7.65
2023-04-10T09:54:49.341Z,6.95
2023-04-10T09:57:21.602Z,6.85
2023-04-10T09:59:51.690Z,12.00
2023-04-10T10:02:20.642Z,6.30
2023-04-10T10:07:17.446Z,5.93
2023-04-10T10:09:45.899Z,7.57
2023-04-10T10:12:16.933Z,4.93
2023-04-10T10:15:12.430Z,4.40
2023-04-10T10:17:46.976Z,5.97
2023-04-10T10:20:17.968Z,4.18
2023-04-10T10:22:46.580Z,4.30
2023-04-10T10:25:13.844Z,4.82
2023-04-10T10:27:42.001Z,4.57
2023-04-10T10:30:28.255Z,4.30
2023-04-10T10:32:57.095Z,4.68
2023-04-10T10:35:28.737Z,5.60
2023-04-10T10:37:59.900Z,6.03
2023-04-10T10:40:45.064Z,6.35
2023-04-10T10:43:22.689Z,5.00
2023-04-10T10:46:01.929Z,6.47
2023-04-10T10:48:29.212Z,5.20
2023-04-10T10:50:59.138Z,4.32
2023-04-10T10:53:40.444Z,4.63
2023-04-10T10:56:19.271Z,3.80
2023-04-10T10:58:48.516Z,3.67
2023-04-10T11:01:16.349Z,3.67
2023-04-10T11:03:47.162Z,3.55
2023-04-10T11:06:19.739Z,4.13
2023-04-10T11:08:53.306Z,3.72
2023-04-10T11:11:27.496Z,3.72
2023-04-10T11:13:57.249Z,4.03
2023-04-10T11:16:43.804Z,3.83
2023-04-10T11:19:20.009Z,4.30
2023-04-10T11:22:04.331Z,4.90
2023-04-10T11:24:57.520Z,4.75
2023-04-10T11:27:48.638Z,3.50
2023-04-10T11:30:48.418Z,3.60
2023-04-10T11:33:19.285Z,3.85
2023-04-10T11:35:46.577Z,4.38
2023-04-10T11:38:16.108Z,3.97
2023-04-10T11:41:04.561Z,3.85
2023-04-10T11:43:32.408Z,3.47
2023-04-10T11:46:08.752Z,3.42
2023-04-10T11:48:37.724Z,4.10
2023-04-10T11:51:13.232Z,4.00
2023-04-10T11:53:41.273Z,3.65
2023-04-10T11:56:22.166Z,3.83
2023-04-10T11:58:54.751Z,4.07
2023-04-10T12:01:23.452Z,4.72
2023-04-10T12:03:50.994Z,4.47
2023-04-10T12:06:19.773Z,4.70
2023-04-10T12:08:49.429Z,4.75
2023-04-10T12:11:24.800Z,4.93
2023-04-10T12:13:54.032Z,6.70
2023-04-10T12:16:22.331Z,6.63
2023-04-10T12:18:50.522Z,6.30
2023-04-10T12:21:17.904Z,5.13
2023-04-10T12:23:44.723Z,4.18
2023-04-10T12:26:13.560Z,4.30
2023-04-10T12:28:42.856Z,4.75
2023-04-10T12:31:10.215Z,6.30
2023-04-10T12:33:37.327Z,4.50
2023-04-10T12:36:04.791Z,4.28
2023-04-10T12:38:45.116Z,4.30
2023-04-10T12:41:12.752Z,4.10
2023-04-10T12:43:41.315Z,4.10
2023-04-10T12:48:37.157Z,3.60
2023-04-10T12:51:04.508Z,5.05
2023-04-10T12:53:31.959Z,4.50
2023-04-10T12:56:05.184Z,4.95
2023-04-10T12:58:33.392Z,3.80
2023-04-10T13:01:06.243Z,4.45
2023-04-10T13:03:39.320Z,4.63
2023-04-10T13:06:08.579Z,4.10
2023-04-10T13:08:36.001Z,4.43
2023-04-10T13:11:03.783Z,4.68
2023-04-10T13:13:33.760Z,4.22
2023-04-10T13:16:01.450Z,4.03
2023-04-10T13:18:28.474Z,4.75
2023-04-10T13:20:56.090Z,4.60
2023-04-10T13:23:23.063Z,4.35
2023-04-10T13:25:51.169Z,4.15
2023-04-10T13:28:19.008Z,4.82
2023-04-10T13:30:46.198Z,3.35
2023-04-10T13:33:13.250Z,5.32
2023-04-10T13:35:41.717Z,4.30
2023-04-10T13:38:09.601Z,5.95
2023-04-10T13:40:37.392Z,5.40
2023-04-10T13:43:06.512Z,6.30
2023-04-10T13:45:34.961Z,5.80
2023-04-10T13:48:02.112Z,6.22
2023-04-10T13:50:29.550Z,6.13
2023-04-10T13:52:56.388Z,5.97
2023-04-10T13:55:23.584Z,4.55
2023-04-10T13:57:50.923Z,4.78
2023-04-10T14:00:18.457Z,4.35
2023-04-10T14:02:45.917Z,4.63
2023-04-10T14:05:13.237Z,4.38
2023-04-10T14:07:40.118Z,4.07
2023-04-10T14:10:08.082Z,5.18
2023-04-10T14:12:36.219Z,3.47
2023-04-10T14:15:05.337Z,6.38
2023-04-10T14:17:32.237Z,4.53
2023-04-10T14:19:59.463Z,4.93
2023-04-10T14:22:26.453Z,4.90
2023-04-10T14:25:05.287Z,5.05
2023-04-10T14:27:39.076Z,5.00
2023-04-10T14:30:06.977Z,4.50
2023-04-10T14:32:33.929Z,4.88
2023-04-10T14:35:01.116Z,4.18
2023-04-10T14:37:28.177Z,5.18
2023-04-10T14:39:55.922Z,4.80
2023-04-10T14:42:23.795Z,7.85
2023-04-10T14:44:51.002Z,4.57
2023-04-10T14:47:18.635Z,6.80
2023-04-10T14:49:45.898Z,5.30
2023-04-10T14:52:12.732Z,7.70
2023-04-10T14:54:39.908Z,6.22
2023-04-10T14:57:07.659Z,5.80
2023-04-10T14:59:34.804Z,4.90
2023-04-10T15:02:01.656Z,4.97
2023-04-10T15:04:29.039Z,3.80
2023-04-10T15:06:56.009Z,4.40
2023-04-10T15:09:23.204Z,10.60
2023-04-10T15:11:50.147Z,8.88
2023-04-10T15:14:17.236Z,9.63
2023-04-10T15:16:44.155Z,7.55
2023-04-10T15:19:11.360Z,7.90
2023-04-10T15:21:38.285Z,6.22
2023-04-10T15:24:05.808Z,7.00
2023-04-10T15:26:32.763Z,12.88
2023-04-10T15:28:59.999Z,8.75
2023-04-10T15:31:26.923Z,7.20
2023-04-10T15:33:54.389Z,6.43
2023-04-10T15:36:21.558Z,14.90
2023-04-10T15:38:50.184Z,12.63
2023-04-10T15:41:17.353Z,5.18
2023-04-10T15:43:44.547Z,9.82
2023-04-10T15:46:11.572Z,7.53
2023-04-10T15:48:38.740Z,10.18
2023-04-10T15:51:06.742Z,7.88
2023-04-10T15:53:34.895Z,13.20
2023-04-10T15:56:04.738Z,9.55
2023-04-10T15:58:32.691Z,8.32
2023-04-10T16:00:59.981Z,16.77
2023-04-10T16:03:29.931Z,15.30
2023-04-10T16:05:58.448Z,6.32
2023-04-10T16:08:26.527Z,6.28
2023-04-10T16:10:54.127Z,7.32
2023-04-10T16:13:21.322Z,7.10
2023-04-10T16:15:49.709Z,6.43
2023-04-10T16:18:17.054Z,8.38
2023-04-10T16:20:43.986Z,13.02
2023-04-10T16:23:11.147Z,10.25
2023-04-10T16:25:38.068Z,8.38
2023-04-10T16:28:08.055Z,8.27
2023-04-10T16:30:35.959Z,10.88
2023-04-10T16:33:04.218Z,8.65
2023-04-10T16:35:31.523Z,11.50
2023-04-10T16:37:58.835Z,9.50
2023-04-10T16:40:32.586Z,13.65
2023-04-10T16:43:01.992Z,8.95
2023-04-10T16:45:29.119Z,7.65
2023-04-10T16:47:56.503Z,8.82
2023-04-10T16:50:23.478Z,9.52
2023-04-10T16:52:50.697Z,8.75
2023-04-10T16:55:17.796Z,9.10
2023-04-10T16:57:45.896Z,10.18
2023-04-10T17:00:13.253Z,9.90
2023-04-10T17:02:40.418Z,10.68
2023-04-10T17:05:07.407Z,13.98
2023-04-10T17:07:34.686Z,16.42
2023-04-10T17:10:01.636Z,14.90
2023-04-10T17:12:28.890Z,17.42
2023-04-10T17:14:55.916Z,16.50
2023-04-10T17:17:23.188Z,15.43
2023-04-10T17:19:50.148Z,16.52
2023-04-10T17:22:17.544Z,17.08
2023-04-10T17:24:45.362Z,17.80
2023-04-10T17:27:14.459Z,17.83
2023-04-10T17:29:41.407Z,15.88
2023-04-10T17:32:09.434Z,13.35
2023-04-10T17:34:36.313Z,15.10
2023-04-10T17:37:03.546Z,20.98
2023-04-10T17:39:30.448Z,17.45
2023-04-10T17:41:57.739Z,23.52
2023-04-10T17:44:24.745Z,25.88
2023-04-10T17:46:53.720Z,27.17
2023-04-10T17:49:22.096Z,18.92
2023-04-10T17:51:49.864Z,17.98
2023-04-10T17:54:16.798Z,17.98
2023-04-10T17:56:44.149Z,19.40
2023-04-10T17:59:11.046Z,17.92
2023-04-10T18:01:38.402Z,15.70
2023-04-10T18:04:05.906Z,22.92
2023-04-10T18:06:33.147Z,23.55
2023-04-10T18:09:00.131Z,35.00
2023-04-10T18:11:27.312Z,30.70
2023-04-10T18:13:54.267Z,52.00
2023-04-10T18:16:21.508Z,44.50
2023-04-10T18:18:48.415Z,43.53
2023-04-10T18:21:15.523Z,27.00
2023-04-10T18:23:44.503Z,27.23
2023-04-10T18:28:39.580Z,28.73
2023-04-10T18:31:08.507Z,31.70
2023-04-10T18:33:35.594Z,33.03
2023-04-10T18:36:03.611Z,56.53
2023-04-10T18:38:30.910Z,53.22
2023-04-10T18:40:58.276Z,53.45
2023-04-10T18:43:27.461Z,67.95
2023-04-10T18:45:55.219Z,44.05
2023-04-10T18:48:22.562Z,47.78
2023-04-10T18:50:53.442Z,50.60
2023-04-10T18:53:21.257Z,60.78
2023-04-10T18:55:50.625Z,49.30
2023-04-10T18:58:17.954Z,46.95
2023-04-10T19:00:45.397Z,68.10
2023-04-10T19:03:13.076Z,55.55
2023-04-10T19:05:41.954Z,74.50
2023-04-10T19:08:09.494Z,68.55
2023-04-10T19:10:37.640Z,53.33
2023-04-10T19:13:04.478Z,66.80
2023-04-10T19:15:31.623Z,71.88
2023-04-10T19:17:58.596Z,63.60
2023-04-10T19:20:50.810Z,68.57
2023-04-10T19:23:13.134Z,64.78
2023-04-10T19:25:41.016Z,74.72
2023-04-10T19:28:07.935Z,72.75
2023-04-10T19:30:35.323Z,73.20
2023-04-10T19:33:02.264Z,71.18
2023-04-10T19:35:29.543Z,77.15
2023-04-10T19:37:57.617Z,74.70
2023-04-10T19:40:24.866Z,78.47
2023-04-10T19:42:51.818Z,90.93
2023-04-10T19:45:19.040Z,88.15
2023-04-10T19:47:45.904Z,85.75
2023-04-10T19:50:13.178Z,90.57
2023-04-10T19:52:40.051Z,83.72
2023-04-10T19:55:07.865Z,80.72
2023-04-10T19:57:35.077Z,78.05
2023-04-10T20:00:02.338Z,76.70
2023-04-10T20:02:29.470Z,80.55
2023-04-10T20:04:56.776Z,102.22
2023-04-10T20:07:24.425Z,97.13
2023-04-10T20:09:51.565Z,96.18
2023-04-10T20:12:18.376Z,91.78
2023-04-10T20:14:45.516Z,107.73
2023-04-10T20:17:12.544Z,80.80
2023-04-10T20:19:40.052Z,90.33
2023-04-10T20:22:07.923Z,83.77
2023-04-10T20:24:35.202Z,77.83
2023-04-10T20:27:02.563Z,84.90
2023-04-10T20:29:29.892Z,91.00
2023-04-10T20:31:56.886Z,82.17
2023-04-10T20:34:24.077Z,59.67
2023-04-10T20:36:50.961Z,59.20
2023-04-10T20:39:18.363Z,83.73
2023-04-10T20:41:45.252Z,67.67
2023-04-10T20:44:12.504Z,65.90
2023-04-10T20:46:40.405Z,57.90
2023-04-10T20:49:07.670Z,53.10
2023-04-10T20:51:37.216Z,57.00
2023-04-10T20:54:06.493Z,61.30
2023-04-10T20:56:42.882Z,67.90
2023-04-10T20:59:11.593Z,71.07
2023-04-10T21:01:38.768Z,67.30
2023-04-10T21:04:06.323Z,65.03
2023-04-10T21:06:33.743Z,64.17
2023-04-10T21:09:01.017Z,61.67
2023-04-10T21:11:28.001Z,63.53
2023-04-10T21:13:55.238Z,51.93
2023-04-10T21:16:22.150Z,64.20
2023-04-10T21:18:49.345Z,69.03
2023-04-10T21:21:16.615Z,64.77
2023-04-10T21:23:43.778Z,65.47
2023-04-10T21:26:10.776Z,91.40
2023-04-10T21:28:37.920Z,92.50
2023-04-10T21:31:05.134Z,97.93
2023-04-10T21:33:32.945Z,85.97
2023-04-10T21:35:59.955Z,77.13
2023-04-10T21:38:27.305Z,69.67
2023-04-10T21:40:54.645Z,61.43
2023-04-10T21:43:22.378Z,57.67
2023-04-10T21:45:49.529Z,58.97
2023-04-10T21:48:16.867Z,61.10
2023-04-10T21:50:43.800Z,56.67
2023-04-10T21:53:11.101Z,68.73
2023-04-10T21:55:38.198Z,61.87
2023-04-10T21:58:05.860Z,61.60
2023-04-10T22:00:33.583Z,64.83
2023-04-10T22:03:00.937Z,62.50
2023-04-10T22:05:28.058Z,60.53
2023-04-10T22:07:55.272Z,53.10
2023-04-10T22:10:22.841Z,52.53
2023-04-10T22:12:49.924Z,55.30
2023-04-10T22:15:17.214Z,61.40
2023-04-10T22:17:44.540Z,55.37
2023-04-10T22:20:11.464Z,55.73
2023-04-10T22:22:38.620Z,63.47
2023-04-10T22:25:06.105Z,51.80
2023-04-10T22:27:33.474Z,50.90
2023-04-10T22:30:03.743Z,43.40
2023-04-10T22:32:32.266Z,44.20
2023-04-10T22:34:59.967Z,48.03
2023-04-10T22:37:27.770Z,47.30
2023-04-10T22:39:56.390Z,46.53
2023-04-10T22:42:24.128Z,47.42
2023-04-10T22:44:51.135Z,52.47
2023-04-10T22:47:18.486Z,53.17
2023-04-10T22:49:45.470Z,45.67
2023-04-10T22:52:13.267Z,45.73
2023-04-10T22:54:40.130Z,42.90
2023-04-10T22:57:07.733Z,40.90
2023-04-10T22:59:38.040Z,39.57
2023-04-10T23:02:05.717Z,41.77
2023-04-10T23:04:32.781Z,40.23
2023-04-10T23:06:59.983Z,41.23
2023-04-10T23:09:26.900Z,40.37
2023-04-10T23:11:54.122Z,38.83
2023-04-10T23:14:21.009Z,42.30
2023-04-10T23:16:49.586Z,39.03
2023-04-10T23:19:19.121Z,37.95
2023-04-10T23:21:46.282Z,37.53
2023-04-10T23:24:13.213Z,38.03
2023-04-10T23:26:40.404Z,37.93
2023-04-10T23:29:07.223Z,37.23
2023-04-10T23:31:34.400Z,36.60
2023-04-10T23:34:01.293Z,35.07
2023-04-10T23:36:28.500Z,35.17
2023-04-10T23:38:55.679Z,34.97
2023-04-10T23:41:22.935Z,35.30
2023-04-10T23:43:49.752Z,36.60
2023-04-10T23:46:17.100Z,36.27
2023-04-10T23:48:43.958Z,34.80
2023-04-10T23:51:11.132Z,36.50
2023-04-10T23:53:38.028Z,36.37
2023-04-10T23:56:07.946Z,33.83
2023-04-10T23:58:34.872Z,35.40
